createdAt,value
2022-09-24T00:01:51.709Z,100342.84
2022-09-24T00:04:25.851Z,100338.84
2022-09-24T00:06:56.526Z,100337.13
2022-09-24T00:09:26.812Z,100332.99
2022-09-24T00:11:57.220Z,100330.06
2022-09-24T00:14:27.533Z,100335.13
2022-09-24T00:16:57.880Z,100333.92
2022-09-24T00:19:28.376Z,100332.38
2022-09-24T00:21:58.772Z,100336.19
2022-09-24T00:24:46.529Z,100332.56
2022-09-24T00:27:16.882Z,100332.06
2022-09-24T00:29:47.192Z,100329.81
2022-09-24T00:32:17.633Z,100329.98
2022-09-24T00:34:47.894Z,100325.97
2022-09-24T00:37:19.284Z,100329.81
2022-09-24T00:39:51.601Z,100325.84
2022-09-24T00:42:22.959Z,100325.16
2022-09-24T00:44:55.759Z,100317.14
2022-09-24T00:47:36.523Z,100312.45
2022-09-24T00:50:14.181Z,100311.93
2022-09-24T00:52:48.489Z,100310.04
2022-09-24T00:55:21.043Z,100309.86
2022-09-24T00:57:52.277Z,100307.59
2022-09-24T01:00:23.100Z,100308.30
2022-09-24T01:02:56.651Z,100306.03
2022-09-24T01:05:26.992Z,100302.73
2022-09-24T01:07:58.131Z,100300.46
2022-09-24T01:10:51.202Z,100296.98
2022-09-24T01:13:49.861Z,100294.03
2022-09-24T01:16:29.747Z,100294.20
2022-09-24T01:19:18.477Z,100292.83
2022-09-24T01:21:52.036Z,100288.14
2022-09-24T01:24:40.470Z,100293.34
2022-09-24T01:27:15.758Z,100294.73
2022-09-24T01:29:59.215Z,100289.69
2022-09-24T01:32:34.475Z,100288.30
2022-09-24T01:35:11.017Z,100285.34
2022-09-24T01:37:46.432Z,100283.95
2022-09-24T01:40:19.166Z,100285.52
2022-09-24T01:42:51.034Z,100277.51
2022-09-24T01:45:24.875Z,100284.83
2022-09-24T01:47:55.186Z,100286.56
2022-09-24T01:50:28.731Z,100285.69
2022-09-24T01:53:06.348Z,100283.08
2022-09-24T01:55:40.039Z,100280.29
2022-09-24T01:58:12.885Z,100282.04
2022-09-24T02:00:49.601Z,100280.11
2022-09-24T02:03:24.198Z,100282.21
2022-09-24T02:06:01.324Z,100280.65
2022-09-24T02:08:37.969Z,100278.05
2022-09-24T02:11:14.084Z,100272.64
2022-09-24T02:13:49.142Z,100267.61
2022-09-24T02:16:23.258Z,100263.42
2022-09-24T02:18:58.288Z,100268.98
2022-09-24T02:21:32.017Z,100264.64
2022-09-24T02:24:06.411Z,100263.23
2022-09-24T02:26:36.860Z,100264.45
2022-09-24T02:29:07.618Z,100260.80
2022-09-24T02:31:43.940Z,100257.83
2022-09-24T02:34:21.596Z,100254.33
2022-09-24T02:36:54.270Z,100256.59
2022-09-24T02:39:24.881Z,100250.14
2022-09-24T02:41:56.942Z,100243.15
2022-09-24T02:44:27.660Z,100243.49
2022-09-24T02:46:58.179Z,100237.56
2022-09-24T02:49:29.303Z,100239.81
2022-09-24T02:51:59.882Z,100240.52
2022-09-24T02:54:30.256Z,100237.20
2022-09-24T02:57:00.566Z,100234.77
2022-09-24T02:59:30.956Z,100239.09
2022-09-24T03:02:01.311Z,100238.02
2022-09-24T03:04:31.835Z,100239.58
2022-09-24T03:07:03.181Z,100240.61
2022-09-24T03:09:33.565Z,100240.27
2022-09-24T03:12:08.181Z,100241.13
2022-09-24T03:14:38.466Z,100236.39
2022-09-24T03:17:10.234Z,100235.69
2022-09-24T03:19:41.656Z,100236.55
2022-09-24T03:22:11.968Z,100229.05
2022-09-24T03:24:42.263Z,100225.90
2022-09-24T03:27:12.678Z,100229.72
2022-09-24T03:30:00.389Z,100226.73
2022-09-24T03:32:33.849Z,100226.72
2022-09-24T03:35:07.504Z,100223.77
2022-09-24T03:37:47.036Z,100226.72
2022-09-24T03:40:21.774Z,100220.61
2022-09-24T03:42:52.118Z,100222.52
2022-09-24T03:45:22.866Z,100222.70
2022-09-24T03:47:56.655Z,100215.03
2022-09-24T03:50:30.897Z,100218.52
2022-09-24T03:53:01.551Z,100212.77
2022-09-24T03:55:32.611Z,100213.27
2022-09-24T03:58:03.349Z,100211.89
2022-09-24T04:00:37.533Z,100213.98
2022-09-24T04:03:09.516Z,100210.66
2022-09-24T04:05:40.271Z,100213.27
2022-09-24T04:08:10.497Z,100212.57
2022-09-24T04:10:41.155Z,100210.83
2022-09-24T04:13:11.461Z,100210.30
2022-09-24T04:15:42.528Z,100204.89
2022-09-24T04:18:13.178Z,100201.23
2022-09-24T04:20:44.613Z,100202.96
2022-09-24T04:23:18.285Z,100202.94
2022-09-24T04:25:48.611Z,100197.89
2022-09-24T04:28:20.570Z,100193.19
2022-09-24T04:30:53.708Z,100194.41
2022-09-24T04:33:24.187Z,100194.92
2022-09-24T04:35:54.635Z,100196.32
2022-09-24T04:38:25.678Z,100195.27
2022-09-24T04:40:56.012Z,100195.47
2022-09-24T04:43:32.390Z,100194.77
2022-09-24T04:46:02.846Z,100198.28
2022-09-24T04:48:34.679Z,100192.36
2022-09-24T04:51:05.414Z,100193.24
2022-09-24T04:53:47.850Z,100189.94
2022-09-24T04:56:18.162Z,100189.77
2022-09-24T04:58:52.820Z,100187.52
2022-09-24T05:01:23.882Z,100188.06
2022-09-24T05:03:54.363Z,100188.06
2022-09-24T05:06:24.652Z,100185.11
2022-09-24T05:08:54.935Z,100188.05
2022-09-24T05:11:25.224Z,100185.45
2022-09-24T05:13:55.509Z,100185.09
2022-09-24T05:16:26.216Z,100186.30
2022-09-24T05:18:56.608Z,100183.48
2022-09-24T05:21:26.964Z,100184.34
2022-09-24T05:23:57.792Z,100180.48
2022-09-24T05:26:45.960Z,100179.76
2022-09-24T05:29:16.200Z,100180.26
2022-09-24T05:31:46.547Z,100173.30
2022-09-24T05:34:17.289Z,100175.90
2022-09-24T05:36:47.878Z,100178.30
2022-09-24T05:39:18.138Z,100178.13
2022-09-24T05:41:51.240Z,100179.85
2022-09-24T05:44:21.674Z,100178.27
2022-09-24T05:46:54.112Z,100182.94
2022-09-24T05:49:24.859Z,100179.79
2022-09-24T05:52:03.192Z,100182.19
2022-09-24T05:54:33.479Z,100181.64
2022-09-24T05:57:03.831Z,100186.30
2022-09-24T05:59:36.467Z,100185.40
2022-09-24T06:02:08.934Z,100187.95
2022-09-24T06:04:41.557Z,100189.66
2022-09-24T06:07:15.044Z,100191.88
2022-09-24T06:09:45.399Z,100193.38
2022-09-24T06:12:15.784Z,100192.45
2022-09-24T06:14:46.501Z,100189.27
2022-09-24T06:17:18.587Z,100188.70
2022-09-24T06:19:48.908Z,100187.78
2022-09-24T06:22:19.185Z,100190.68
2022-09-24T06:24:51.447Z,100189.45
2022-09-24T06:27:21.842Z,100190.42
2022-09-24T06:29:52.202Z,100188.09
2022-09-24T06:32:24.252Z,100190.96
2022-09-24T06:34:58.996Z,100189.86
2022-09-24T06:37:29.640Z,100187.67
2022-09-24T06:40:00.144Z,100189.31
2022-09-24T06:42:31.463Z,100189.92
2022-09-24T06:45:27.057Z,100192.80
2022-09-24T06:47:58.611Z,100190.93
2022-09-24T06:50:31.743Z,100193.61
2022-09-24T06:53:05.339Z,100192.62
2022-09-24T06:55:36.235Z,100190.05
2022-09-24T06:58:09.112Z,100190.28
2022-09-24T07:00:41.152Z,100185.27
2022-09-24T07:03:17.066Z,100188.27
2022-09-24T07:05:47.338Z,100189.70
2022-09-24T07:08:17.796Z,100189.93
2022-09-24T07:10:52.668Z,100186.98
2022-09-24T07:13:23.613Z,100195.23
2022-09-24T07:15:54.253Z,100194.75
2022-09-24T07:18:28.252Z,100201.95
2022-09-24T07:20:59.154Z,100203.39
2022-09-24T07:23:29.547Z,100209.90
2022-09-24T07:26:00.305Z,100209.77
2022-09-24T07:28:30.906Z,100212.77
2022-09-24T07:31:02.859Z,100211.91
2022-09-24T07:33:35.512Z,100215.59
2022-09-24T07:36:08.617Z,100212.46
2022-09-24T07:38:39.717Z,100213.71
2022-09-24T07:41:11.221Z,100217.23
2022-09-24T07:43:44.050Z,100218.66
2022-09-24T07:46:17.643Z,100225.69
2022-09-24T07:48:51.815Z,100225.92
2022-09-24T07:51:22.202Z,100226.86
2022-09-24T07:53:52.634Z,100226.52
2022-09-24T07:56:24.435Z,100229.30
2022-09-24T07:58:55.442Z,100228.25
2022-09-24T08:01:26.643Z,100225.61
2022-09-24T08:03:57.099Z,100222.44
2022-09-24T08:06:27.897Z,100222.16
2022-09-24T08:09:00.762Z,100221.90
2022-09-24T08:11:33.624Z,100222.17
2022-09-24T08:14:04.229Z,100218.20
2022-09-24T08:16:34.636Z,100212.68
2022-09-24T08:19:04.985Z,100203.70
2022-09-24T08:21:35.374Z,100205.75
2022-09-24T08:24:06.146Z,100197.44
2022-09-24T08:26:36.569Z,100196.98
2022-09-24T08:29:06.810Z,100192.16
2022-09-24T08:31:38.418Z,100190.15
2022-09-24T08:34:09.324Z,100189.41
2022-09-24T08:36:42.907Z,100191.44
2022-09-24T08:39:15.567Z,100184.15
2022-09-24T08:41:58.049Z,100179.53
2022-09-24T08:44:50.093Z,100180.69
2022-09-24T08:47:34.180Z,100178.14
2022-09-24T08:50:13.471Z,100180.70
2022-09-24T08:53:02.885Z,100181.80
2022-09-24T08:55:40.721Z,100179.88
2022-09-24T08:58:31.552Z,100178.34
2022-09-24T09:01:14.305Z,100182.26
2022-09-24T09:03:50.329Z,100176.70
2022-09-24T09:06:41.926Z,100176.16
2022-09-24T09:09:17.312Z,100179.94
2022-09-24T09:11:51.277Z,100178.98
2022-09-24T09:14:31.353Z,100182.17
2022-09-24T09:17:06.758Z,100178.36
2022-09-24T09:19:39.778Z,100175.09
2022-09-24T09:22:15.050Z,100169.93
2022-09-24T09:24:49.975Z,100171.98
2022-09-24T09:27:21.887Z,100162.80
2022-09-24T09:29:57.337Z,100167.52
2022-09-24T09:32:40.363Z,100162.52
2022-09-24T09:35:19.931Z,100163.91
2022-09-24T09:37:58.623Z,100165.92
2022-09-24T09:40:36.954Z,100168.92
2022-09-24T09:43:11.955Z,100172.19
2022-09-24T09:45:48.019Z,100168.29
2022-09-24T09:48:21.148Z,100166.13
2022-09-24T09:50:54.379Z,100165.45
2022-09-24T09:53:27.342Z,100164.09
2022-09-24T09:56:00.324Z,100166.23
2022-09-24T09:58:33.476Z,100165.02
2022-09-24T10:01:10.408Z,100167.86
2022-09-24T10:03:50.891Z,100168.77
2022-09-24T10:06:28.288Z,100165.58
2022-09-24T10:09:13.142Z,100164.30
2022-09-24T10:11:43.990Z,100162.48
2022-09-24T10:14:18.511Z,100163.46
2022-09-24T10:16:54.245Z,100163.88
2022-09-24T10:19:27.077Z,100160.39
2022-09-24T10:21:59.621Z,100160.10
2022-09-24T10:24:30.780Z,100161.08
2022-09-24T10:27:06.568Z,100161.94
2022-09-24T10:29:54.531Z,100168.64
2022-09-24T10:32:27.368Z,100173.29
2022-09-24T10:35:02.640Z,100166.30
2022-09-24T10:37:33.412Z,100163.46
2022-09-24T10:40:13.259Z,100161.52
2022-09-24T10:42:43.732Z,100156.92
2022-09-24T10:45:16.933Z,100156.77
2022-09-24T10:47:58.380Z,100159.43
2022-09-24T10:50:36.754Z,100158.22
2022-09-24T10:53:14.855Z,100156.55
2022-09-24T10:55:52.476Z,100156.20
2022-09-24T10:58:42.816Z,100157.14
2022-09-24T11:01:20.239Z,100157.42
2022-09-24T11:04:13.584Z,100158.80
2022-09-24T11:06:58.172Z,100157.45
2022-09-24T11:09:38.134Z,100150.77
2022-09-24T11:12:18.616Z,100150.34
2022-09-24T11:15:04.318Z,100148.54
2022-09-24T11:17:44.100Z,100145.92
2022-09-24T11:20:28.041Z,100144.69
2022-09-24T11:23:18.871Z,100141.11
2022-09-24T11:25:58.175Z,100140.36
2022-09-24T11:28:55.517Z,100141.02
2022-09-24T11:31:37.639Z,100139.98
2022-09-24T11:34:31.411Z,100143.95
2022-09-24T11:37:19.662Z,100139.59
2022-09-24T11:40:02.958Z,100140.70
2022-09-24T11:42:41.547Z,100135.77
2022-09-24T11:45:33.020Z,100139.08
2022-09-24T11:48:23.037Z,100141.05
2022-09-24T11:51:03.522Z,100140.98
2022-09-24T11:53:40.281Z,100136.17
2022-09-24T11:56:13.565Z,100132.88
2022-09-24T11:58:49.339Z,100128.38
2022-09-24T12:01:24.982Z,100129.06
2022-09-24T12:04:01.731Z,100127.35
2022-09-24T12:06:32.933Z,100123.05
2022-09-24T12:09:10.923Z,100117.10
2022-09-24T12:11:48.115Z,100107.38
2022-09-24T12:14:24.147Z,100108.99
2022-09-24T12:17:00.956Z,100109.50
2022-09-24T12:19:33.141Z,100108.98
2022-09-24T12:22:06.539Z,100107.68
2022-09-24T12:24:43.864Z,100106.80
2022-09-24T12:27:18.419Z,100110.33
2022-09-24T12:30:11.115Z,100102.91
2022-09-24T12:32:57.889Z,100097.52
2022-09-24T12:35:39.896Z,100095.30
2022-09-24T12:38:15.846Z,100096.89
2022-09-24T12:41:24.745Z,100087.43
2022-09-24T12:44:00.973Z,100078.76
2022-09-24T12:46:39.530Z,100082.48
2022-09-24T12:49:24.564Z,100080.88
2022-09-24T12:51:56.882Z,100080.52
2022-09-24T12:54:34.349Z,100078.95
2022-09-24T12:57:11.269Z,100076.98
2022-09-24T12:59:52.431Z,100080.35
2022-09-24T13:02:25.075Z,100079.78
2022-09-24T13:05:16.661Z,100075.08
2022-09-24T13:07:59.376Z,100072.70
2022-09-24T13:10:32.543Z,100073.74
2022-09-24T13:13:04.487Z,100074.36
2022-09-24T13:15:38.666Z,100070.17
2022-09-24T13:18:25.182Z,100066.95
2022-09-24T13:21:09.874Z,100067.46
2022-09-24T13:23:50.705Z,100069.63
2022-09-24T13:26:34.737Z,100065.88
2022-09-24T13:29:06.893Z,100063.38
2022-09-24T13:31:45.741Z,100056.34
2022-09-24T13:34:21.389Z,100060.34
2022-09-24T13:36:58.916Z,100054.77
2022-09-24T13:39:36.046Z,100053.45
2022-09-24T13:42:16.375Z,100049.65
2022-09-24T13:44:51.502Z,100046.14
2022-09-24T13:47:29.228Z,100043.63
2022-09-24T13:50:09.547Z,100042.73
2022-09-24T13:52:45.765Z,100043.75
2022-09-24T13:55:22.658Z,100042.48
2022-09-24T13:57:52.978Z,100044.67
2022-09-24T14:00:27.646Z,100041.45
2022-09-24T14:03:04.276Z,100032.45
2022-09-24T14:05:40.211Z,100036.11
2022-09-24T14:08:14.093Z,100038.34
2022-09-24T14:10:45.822Z,100042.45
2022-09-24T14:13:23.281Z,100042.65
2022-09-24T14:15:56.716Z,100049.95
2022-09-24T14:18:28.739Z,100046.55
2022-09-24T14:21:06.277Z,100045.33
2022-09-24T14:23:41.554Z,100045.25
2022-09-24T14:26:24.192Z,100043.14
2022-09-24T14:28:55.490Z,100040.35
2022-09-24T14:31:26.143Z,100037.23
2022-09-24T14:33:57.058Z,100039.84
2022-09-24T14:36:29.393Z,100038.64
2022-09-24T14:39:02.811Z,100037.75
2022-09-24T14:41:36.207Z,100033.02
2022-09-24T14:44:13.472Z,100033.59
2022-09-24T14:46:50.826Z,100036.73
2022-09-24T14:49:23.923Z,100041.17
2022-09-24T14:51:56.295Z,100040.48
2022-09-24T14:54:32.657Z,100035.15
2022-09-24T14:57:24.464Z,100039.14
2022-09-24T14:59:55.212Z,100035.04
2022-09-24T15:02:31.969Z,100040.30
2022-09-24T15:05:06.858Z,100036.29
2022-09-24T15:07:38.051Z,100035.98
2022-09-24T15:10:21.383Z,100031.85
2022-09-24T15:12:54.285Z,100025.96
2022-09-24T15:15:33.093Z,100026.31
2022-09-24T15:18:03.976Z,100026.30
2022-09-24T15:20:36.904Z,100030.94
2022-09-24T15:23:08.835Z,100028.80
2022-09-24T15:25:39.624Z,100034.50
2022-09-24T15:28:14.858Z,100031.65
2022-09-24T15:30:45.215Z,100031.27
2022-09-24T15:33:17.568Z,100030.55
2022-09-24T15:35:49.943Z,100029.63
2022-09-24T15:38:22.726Z,100028.96
2022-09-24T15:40:54.052Z,100029.22
2022-09-24T15:43:25.928Z,100025.86
2022-09-24T15:45:57.284Z,100028.67
2022-09-24T15:48:27.723Z,100031.27
2022-09-24T15:50:59.345Z,100031.09
2022-09-24T15:53:31.517Z,100031.98
2022-09-24T15:56:03.501Z,100032.16
2022-09-24T15:58:37.066Z,100035.92
2022-09-24T16:01:07.961Z,100035.46
2022-09-24T16:03:40.633Z,100036.25
2022-09-24T16:06:17.031Z,100038.06
2022-09-24T16:08:47.958Z,100039.67
2022-09-24T16:11:18.863Z,100033.88
2022-09-24T16:13:50.913Z,100035.28
2022-09-24T16:16:21.301Z,100032.05
2022-09-24T16:18:52.720Z,100031.33
2022-09-24T16:21:23.512Z,100037.79
2022-09-24T16:23:58.027Z,100038.77
2022-09-24T16:26:28.487Z,100037.77
2022-09-24T16:28:58.928Z,100041.23
2022-09-24T16:31:29.367Z,100042.38
2022-09-24T16:34:00.332Z,100043.41
2022-09-24T16:36:31.519Z,100045.37
2022-09-24T16:39:02.212Z,100047.66
2022-09-24T16:41:34.661Z,100050.31
2022-09-24T16:44:06.977Z,100049.27
2022-09-24T16:46:37.321Z,100052.78
2022-09-24T16:49:07.707Z,100050.35
2022-09-24T16:51:38.939Z,100045.71
2022-09-24T16:54:09.305Z,100047.52
2022-09-24T16:56:39.683Z,100044.90
2022-09-24T16:59:11.229Z,100047.38
2022-09-24T17:01:42.601Z,100047.11
2022-09-24T17:04:13.597Z,100044.83
2022-09-24T17:06:45.186Z,100045.58
2022-09-24T17:09:33.559Z,100042.29
2022-09-24T17:12:04.302Z,100047.18
2022-09-24T17:14:38.532Z,100044.00
2022-09-24T17:17:09.199Z,100047.58
2022-09-24T17:19:39.468Z,100046.64
2022-09-24T17:22:09.765Z,100048.10
2022-09-24T17:24:40.173Z,100048.66
2022-09-24T17:27:10.665Z,100046.45
2022-09-24T17:29:41.072Z,100048.50
2022-09-24T17:32:11.344Z,100050.68
2022-09-24T17:34:45.688Z,100044.75
2022-09-24T17:37:17.284Z,100050.14
2022-09-24T17:39:47.575Z,100047.09
2022-09-24T17:42:17.973Z,100048.44
2022-09-24T17:44:48.303Z,100051.56
2022-09-24T17:47:18.690Z,100058.34
2022-09-24T17:49:49.445Z,100064.29
2022-09-24T17:52:21.092Z,100063.43
2022-09-24T17:54:51.635Z,100063.65
2022-09-24T17:57:25.182Z,100070.69
2022-09-24T18:00:03.541Z,100075.01
2022-09-24T18:02:34.600Z,100072.95
2022-09-24T18:05:05.384Z,100080.41
2022-09-24T18:07:43.209Z,100081.05
2022-09-24T18:10:17.358Z,100083.74
2022-09-24T18:12:51.490Z,100083.45
2022-09-24T18:15:21.918Z,100084.52
2022-09-24T18:17:53.217Z,100084.90
2022-09-24T18:20:23.991Z,100091.18
2022-09-24T18:22:55.647Z,100088.02
2022-09-24T18:25:29.900Z,100089.98
2022-09-24T18:28:01.746Z,100084.72
2022-09-24T18:30:32.467Z,100087.15
2022-09-24T18:33:03.699Z,100087.02
2022-09-24T18:35:34.809Z,100087.75
2022-09-24T18:38:05.431Z,100086.34
2022-09-24T18:40:36.435Z,100085.11
2022-09-24T18:43:07.109Z,100083.32
2022-09-24T18:45:38.010Z,100081.17
2022-09-24T18:48:16.344Z,100083.32
2022-09-24T18:50:47.452Z,100083.95
2022-09-24T18:53:18.562Z,100090.56
2022-09-24T18:55:50.269Z,100088.52
2022-09-24T18:58:28.623Z,100086.02
2022-09-24T19:01:02.802Z,100080.36
2022-09-24T19:03:33.841Z,100084.70
2022-09-24T19:06:06.004Z,100080.64
2022-09-24T19:08:37.052Z,100082.83
2022-09-24T19:11:10.257Z,100085.73
2022-09-24T19:13:42.935Z,100086.67
2022-09-24T19:16:15.646Z,100083.09
2022-09-24T19:18:52.957Z,100088.66
2022-09-24T19:21:25.079Z,100090.18
2022-09-24T19:23:58.046Z,100091.31
2022-09-24T19:26:33.963Z,100089.38
2022-09-24T19:29:06.130Z,100095.63
2022-09-24T19:31:38.838Z,100093.77
2022-09-24T19:34:12.529Z,100093.66
2022-09-24T19:36:44.939Z,100099.88
2022-09-24T19:39:22.516Z,100100.19
2022-09-24T19:41:56.972Z,100102.95
2022-09-24T19:44:30.816Z,100104.33
2022-09-24T19:47:01.907Z,100101.18
2022-09-24T19:49:32.677Z,100102.14
2022-09-24T19:52:08.586Z,100100.33
2022-09-24T19:54:40.657Z,100103.23
2022-09-24T19:57:12.237Z,100106.61
2022-09-24T19:59:44.698Z,100109.27
2022-09-24T20:02:16.005Z,100107.18
2022-09-24T20:04:46.485Z,100107.21
2022-09-24T20:07:18.003Z,100105.50
2022-09-24T20:09:48.424Z,100110.09
2022-09-24T20:12:20.360Z,100110.16
2022-09-24T20:14:51.388Z,100112.13
2022-09-24T20:17:23.768Z,100108.18
2022-09-24T20:19:54.512Z,100108.46
2022-09-24T20:22:27.805Z,100108.05
2022-09-24T20:25:00.545Z,100103.82
2022-09-24T20:27:48.625Z,100101.84
2022-09-24T20:30:21.582Z,100107.24
2022-09-24T20:32:53.221Z,100105.66
2022-09-24T20:35:23.866Z,100107.85
2022-09-24T20:37:54.352Z,100105.86
2022-09-24T20:40:24.881Z,100109.05
2022-09-24T20:42:55.349Z,100111.34
2022-09-24T20:45:25.641Z,100106.61
2022-09-24T20:48:01.278Z,100105.90
2022-09-24T20:50:39.700Z,100105.39
2022-09-24T20:53:14.964Z,100106.66
2022-09-24T20:55:45.282Z,100104.05
2022-09-24T20:58:17.250Z,100107.78
2022-09-24T21:00:54.602Z,100103.81
2022-09-24T21:03:43.301Z,100106.27
2022-09-24T21:06:20.589Z,100103.52
2022-09-24T21:08:53.946Z,100102.17
2022-09-24T21:11:27.422Z,100104.33
2022-09-24T21:14:00.914Z,100107.49
2022-09-24T21:16:33.503Z,100106.13
2022-09-24T21:19:08.134Z,100101.26
2022-09-24T21:21:39.403Z,100099.69
2022-09-24T21:24:15.265Z,100100.06
2022-09-24T21:26:46.605Z,100097.27
2022-09-24T21:29:20.712Z,100095.89
2022-09-24T21:31:51.161Z,100092.05
2022-09-24T21:34:22.478Z,100089.76
2022-09-24T21:36:53.748Z,100087.83
2022-09-24T21:39:26.703Z,100089.24
2022-09-24T21:41:59.543Z,100088.38
2022-09-24T21:44:33.242Z,100088.77
2022-09-24T21:47:04.153Z,100092.32
2022-09-24T21:49:36.701Z,100087.52
2022-09-24T21:52:09.037Z,100087.68
2022-09-24T21:54:39.690Z,100084.16
2022-09-24T21:57:11.414Z,100089.16
2022-09-24T22:00:00.337Z,100089.23
2022-09-24T22:02:32.530Z,100087.85
2022-09-24T22:05:03.655Z,100083.92
2022-09-24T22:07:34.325Z,100085.00
2022-09-24T22:10:10.014Z,100085.34
2022-09-24T22:12:40.774Z,100087.42
2022-09-24T22:15:11.899Z,100089.16
2022-09-24T22:17:43.526Z,100086.40
2022-09-24T22:20:13.982Z,100081.17
2022-09-24T22:22:44.295Z,100079.00
2022-09-24T22:25:14.674Z,100079.55
2022-09-24T22:27:45.088Z,100088.80
2022-09-24T22:30:16.260Z,100089.94
2022-09-24T22:32:46.529Z,100087.02
2022-09-24T22:35:37.311Z,100088.83
2022-09-24T22:38:11.751Z,100091.81
2022-09-24T22:40:42.813Z,100090.77
2022-09-24T22:43:13.173Z,100085.55
2022-09-24T22:45:44.563Z,100087.62
2022-09-24T22:48:17.081Z,100085.84
2022-09-24T22:50:47.321Z,100083.55
2022-09-24T22:53:17.983Z,100079.33
2022-09-24T22:55:52.445Z,100080.67
2022-09-24T22:58:23.167Z,100077.52
2022-09-24T23:00:53.491Z,100078.02
2022-09-24T23:03:24.123Z,100080.98
2022-09-24T23:05:54.487Z,100076.95
2022-09-24T23:08:24.827Z,100076.27
2022-09-24T23:10:55.073Z,100075.73
2022-09-24T23:13:25.384Z,100074.85
2022-09-24T23:15:55.729Z,100073.28
2022-09-24T23:18:26.052Z,100072.58
2022-09-24T23:20:57.583Z,100071.88
2022-09-24T23:23:27.979Z,100073.30
2022-09-24T23:26:10.271Z,100076.43
2022-09-24T23:28:43.877Z,100077.48
2022-09-24T23:31:15.302Z,100073.65
2022-09-24T23:33:45.695Z,100072.96
2022-09-24T23:36:17.065Z,100073.30
2022-09-24T23:38:47.444Z,100071.71
2022-09-24T23:41:18.322Z,100066.83
2022-09-24T23:43:48.725Z,100063.35
2022-09-24T23:46:20.892Z,100064.73
2022-09-24T23:48:51.298Z,100063.69
2022-09-24T23:51:21.625Z,100062.80
2022-09-24T23:53:52.298Z,100063.48
2022-09-24T23:56:23.127Z,100059.48
2022-09-24T23:58:55.187Z,100060.70
